Time;durP1;ratioP1;P1;durP2;ratioP2;P2;SDS_P1;SDS_P2;PMS_P1;PMS_P2;Temp;Humidity;BMP_temperature;BMP_pressure;BME280_temperature;BME280_humidity;BME280_pressure;Samples;Min_cycle;Max_cycle;Signal;HPM_P1;HPM_P2
2022/09/21 00:01:08;;;;;;;3.60;3.17;;;8.00;1.00;;;;;;5102177;28;20915;-76
2022/09/21 00:03:34;;;;;;;3.87;3.57;;;8.00;1.00;;;;;;5095845;28;20406;-70
2022/09/21 00:06:04;;;;;;;5.23;3.17;;;8.00;1.00;;;;;;5103681;28;20990;-70
2022/09/21 00:08:30;;;;;;;3.60;3.30;;;8.00;1.00;;;;;;5116423;28;20452;-76
2022/09/21 00:10:55;;;;;;;4.63;3.67;;;8.00;1.00;;;;;;5108207;28;20421;-75
2022/09/21 00:13:21;;;;;;;4.20;3.80;;;8.00;1.00;;;;;;5077794;28;20618;-75
2022/09/21 00:15:47;;;;;;;3.63;3.33;;;7.90;1.00;;;;;;5100618;28;20544;-73
2022/09/21 00:18:13;;;;;;;4.73;3.33;;;7.90;1.00;;;;;;5097848;28;20173;-70
2022/09/21 00:20:42;;;;;;;3.87;3.50;;;7.90;1.00;;;;;;5107846;28;20583;-70
2022/09/21 00:23:08;;;;;;;3.70;3.40;;;7.90;1.00;;;;;;5095848;28;20202;-76
2022/09/21 00:25:34;;;;;;;4.53;3.53;;;7.90;1.00;;;;;;5093921;28;20550;-75
2022/09/21 00:28:00;;;;;;;3.77;3.20;;;7.90;1.00;;;;;;5096728;28;20408;-70
2022/09/21 00:30:27;;;;;;;3.10;2.90;;;7.90;1.00;;;;;;5095526;28;20400;-75
2022/09/21 00:32:53;;;;;;;4.10;3.80;;;7.90;1.00;;;;;;5093211;28;20453;-70
2022/09/21 00:35:19;;;;;;;4.07;3.70;;;7.80;1.00;;;;;;5107257;28;20465;-70
2022/09/21 00:37:45;;;;;;;3.53;3.30;;;7.80;1.00;;;;;;5095437;28;20408;-70
2022/09/21 00:40:11;;;;;;;8.17;4.07;;;7.80;1.00;;;;;;5100603;28;20181;-71
2022/09/21 00:42:37;;;;;;;5.67;3.80;;;7.80;1.00;;;;;;5115096;28;20169;-75
2022/09/21 00:45:03;;;;;;;3.73;3.43;;;7.80;1.00;;;;;;5095857;28;20433;-75
2022/09/21 00:47:41;;;;;;;4.93;3.50;;;7.80;1.00;;;;;;5115553;28;20640;-70
2022/09/21 00:50:13;;;;;;;2.90;2.63;;;7.80;1.00;;;;;;5111504;28;20411;-75
2022/09/21 00:52:50;;;;;;;4.87;3.70;;;7.70;1.00;;;;;;5094937;28;20900;-70
2022/09/21 00:55:36;;;;;;;5.50;3.30;;;7.80;1.00;;;;;;5098291;28;20464;-75
2022/09/21 00:58:08;;;;;;;6.23;3.50;;;7.70;1.00;;;;;;5115433;28;20418;-72
2022/09/21 01:00:35;;;;;;;4.30;2.90;;;7.70;1.00;;;;;;5108521;28;20417;-75
2022/09/21 01:03:01;;;;;;;3.40;3.13;;;7.70;1.00;;;;;;5094938;28;20540;-70
2022/09/21 01:05:27;;;;;;;3.53;3.33;;;7.70;1.00;;;;;;5098049;28;20431;-75
2022/09/21 01:07:56;;;;;;;3.37;3.07;;;7.70;1.00;;;;;;5097043;28;20888;-71
2022/09/21 01:10:22;;;;;;;3.30;3.10;;;7.70;1.00;;;;;;5113298;28;20472;-71
2022/09/21 01:13:29;;;;;;;4.10;3.00;;;7.70;1.00;;;;;;5114488;28;20433;-71
2022/09/21 01:16:13;;;;;;;3.63;3.40;;;7.70;1.00;;;;;;5030365;28;20457;-76
2022/09/21 01:18:50;;;;;;;3.10;2.80;;;7.60;1.00;;;;;;5092523;28;20415;-77
2022/09/21 01:21:29;;;;;;;3.50;3.20;;;7.60;1.00;;;;;;5104125;28;20393;-72
2022/09/21 01:24:04;;;;;;;4.20;3.33;;;7.60;1.00;;;;;;5114170;28;20406;-69
2022/09/21 01:26:47;;;;;;;3.37;3.03;;;7.60;1.00;;;;;;5103573;28;20534;-71
2022/09/21 01:29:26;;;;;;;3.80;3.50;;;7.60;1.00;;;;;;5094537;28;20412;-70
2022/09/21 01:32:12;;;;;;;3.40;3.20;;;7.60;1.00;;;;;;5107555;28;20415;-70
2022/09/21 01:34:41;;;;;;;4.57;3.70;;;7.50;1.00;;;;;;5113334;28;20541;-71
2022/09/21 01:37:14;;;;;;;3.60;3.30;;;7.50;1.00;;;;;;5095271;28;20495;-70
2022/09/21 01:39:44;;;;;;;4.80;4.40;;;7.50;1.00;;;;;;5094185;28;20759;-75
2022/09/21 01:42:12;;;;;;;2.93;2.73;;;7.50;1.00;;;;;;5076279;28;20927;-74
2022/09/21 01:44:41;;;;;;;3.30;3.10;;;7.50;1.00;;;;;;5094271;28;20423;-70
2022/09/21 01:47:13;;;;;;;2.93;2.70;;;7.50;1.00;;;;;;5094032;28;20400;-70
2022/09/21 01:49:45;;;;;;;3.20;3.00;;;7.50;1.00;;;;;;5110475;28;20423;-71
2022/09/21 01:52:19;;;;;;;5.40;3.50;;;7.40;1.00;;;;;;5114430;28;20758;-70
2022/09/21 01:54:51;;;;;;;3.80;3.50;;;7.40;1.00;;;;;;5077394;28;20554;-75
2022/09/21 01:57:49;;;;;;;3.00;2.80;;;7.40;1.00;;;;;;5093438;28;20431;-70
2022/09/21 02:00:15;;;;;;;3.23;3.00;;;7.40;1.00;;;;;;5101701;28;20833;-76
2022/09/21 02:02:57;;;;;;;3.20;3.00;;;7.40;1.00;;;;;;5114206;28;20403;-73
2022/09/21 02:05:27;;;;;;;6.80;3.43;;;7.40;1.00;;;;;;5092896;28;20595;-71
2022/09/21 02:07:53;;;;;;;3.70;3.50;;;7.40;1.00;;;;;;5093955;28;20396;-75
2022/09/21 02:10:33;;;;;;;4.50;3.90;;;7.40;1.00;;;;;;5113300;28;20771;-69
2022/09/21 02:13:05;;;;;;;3.03;2.77;;;7.30;1.00;;;;;;5109732;28;20443;-75
2022/09/21 02:15:54;;;;;;;5.33;3.40;;;7.30;1.00;;;;;;5092028;28;20420;-75
2022/09/21 02:18:44;;;;;;;3.40;3.20;;;7.30;1.00;;;;;;5075620;28;20954;-76
2022/09/21 02:21:20;;;;;;;4.40;4.10;;;7.30;1.00;;;;;;5093605;28;20400;-75
2022/09/21 02:24:01;;;;;;;3.43;3.23;;;7.30;1.00;;;;;;5108948;28;20921;-70
2022/09/21 02:26:45;;;;;;;5.50;3.97;;;7.20;1.00;;;;;;5094618;28;20529;-70
2022/09/21 02:29:36;;;;;;;4.53;4.13;;;7.20;1.00;;;;;;5093818;28;20806;-76
2022/09/21 02:32:05;;;;;;;4.20;3.83;;;7.20;1.00;;;;;;5093223;28;20960;-73
2022/09/21 02:34:44;;;;;;;3.70;3.40;;;7.20;1.00;;;;;;5112851;28;20590;-75
2022/09/21 02:37:18;;;;;;;4.00;3.60;;;7.20;1.00;;;;;;5112217;28;20395;-70
2022/09/21 02:39:54;;;;;;;3.90;3.60;;;7.20;1.00;;;;;;5093184;28;20401;-75
2022/09/21 02:42:26;;;;;;;4.17;3.70;;;7.20;1.00;;;;;;5076152;28;20468;-75
2022/09/21 02:45:03;;;;;;;4.07;3.77;;;7.20;1.00;;;;;;5103391;28;20439;-70
2022/09/21 02:47:46;;;;;;;3.77;3.57;;;7.20;1.00;;;;;;5092984;28;20457;-70
2022/09/21 02:50:19;;;;;;;3.90;3.50;;;7.20;1.00;;;;;;5101571;28;20486;-75
2022/09/21 02:52:44;;;;;;;3.97;3.60;;;7.10;1.00;;;;;;5113513;28;20930;-74
2022/09/21 02:55:14;;;;;;;4.00;3.70;;;7.10;1.00;;;;;;5103933;28;20435;-70
2022/09/21 02:57:40;;;;;;;3.80;3.50;;;7.10;1.00;;;;;;5092963;28;20216;-69
2022/09/21 03:00:07;;;;;;;4.80;3.93;;;7.10;1.00;;;;;;5080696;28;20418;-72
2022/09/21 03:02:41;;;;;;;4.10;3.80;;;7.10;1.00;;;;;;5095086;28;20933;-75
2022/09/21 03:05:08;;;;;;;3.77;3.50;;;7.10;1.00;;;;;;5093281;28;20429;-69
2022/09/21 03:07:34;;;;;;;4.10;3.80;;;7.10;1.00;;;;;;5102554;28;20428;-70
2022/09/21 03:10:00;;;;;;;4.30;4.00;;;7.10;1.00;;;;;;5097959;28;20752;-75
2022/09/21 03:12:26;;;;;;;5.20;4.17;;;7.00;1.00;;;;;;5113296;28;20156;-70
2022/09/21 03:14:52;;;;;;;4.83;4.13;;;7.00;1.00;;;;;;5086691;28;20197;-75
2022/09/21 03:17:18;;;;;;;4.13;3.83;;;7.00;1.00;;;;;;5074952;28;20551;-70
2022/09/21 03:19:43;;;;;;;4.20;3.90;;;7.00;1.00;;;;;;5098088;28;20763;-70
2022/09/21 03:22:09;;;;;;;5.87;4.80;;;7.00;1.00;;;;;;5113173;28;20402;-70
2022/09/21 03:24:44;;;;;;;4.90;4.10;;;7.00;1.00;;;;;;5092511;28;20180;-70
2022/09/21 03:27:09;;;;;;;4.20;3.80;;;7.00;1.00;;;;;;5113402;28;20506;-70
2022/09/21 03:29:35;;;;;;;4.20;3.90;;;6.90;1.00;;;;;;5087415;28;20502;-76
2022/09/21 03:32:01;;;;;;;5.03;4.73;;;6.90;1.00;;;;;;5102593;28;20181;-70
2022/09/21 03:34:27;;;;;;;4.00;3.60;;;6.90;1.00;;;;;;5106605;28;20459;-75
2022/09/21 03:36:52;;;;;;;3.40;3.10;;;6.80;1.00;;;;;;5076365;28;20173;-70
2022/09/21 03:39:18;;;;;;;4.40;4.10;;;6.80;1.00;;;;;;5099864;28;20234;-75
2022/09/21 03:41:44;;;;;;;4.60;3.80;;;6.80;1.00;;;;;;5098544;28;20165;-75
2022/09/21 03:44:09;;;;;;;3.93;3.73;;;6.80;1.00;;;;;;5113947;28;20197;-70
2022/09/21 03:46:35;;;;;;;5.50;5.00;;;6.80;1.00;;;;;;5095907;28;20545;-70
2022/09/21 03:49:04;;;;;;;4.00;3.70;;;6.80;1.00;;;;;;5113149;28;20196;-69
2022/09/21 03:51:30;;;;;;;4.30;4.00;;;6.70;1.00;;;;;;5098579;28;20183;-74
2022/09/21 03:53:56;;;;;;;4.40;4.00;;;6.70;1.00;;;;;;5099733;28;20528;-75
2022/09/21 03:56:22;;;;;;;4.00;3.70;;;6.70;1.00;;;;;;5096163;28;20415;-75
2022/09/21 03:58:47;;;;;;;4.53;4.13;;;6.70;1.00;;;;;;5109956;28;20422;-74
2022/09/21 04:01:13;;;;;;;4.80;4.23;;;6.70;1.00;;;;;;5116711;28;20187;-75
2022/09/21 04:03:39;;;;;;;3.90;3.60;;;6.70;1.00;;;;;;5102488;28;20209;-71
2022/09/21 04:06:09;;;;;;;5.07;4.50;;;6.60;1.00;;;;;;5095639;28;20422;-72
2022/09/21 04:08:35;;;;;;;4.90;4.50;;;6.60;1.00;;;;;;5106871;28;20181;-69
2022/09/21 04:11:01;;;;;;;3.87;3.60;;;6.60;1.00;;;;;;5116326;28;20414;-76
2022/09/21 04:13:27;;;;;;;4.30;3.87;;;6.60;1.00;;;;;;5106217;28;20190;-75
2022/09/21 04:15:52;;;;;;;4.43;4.10;;;6.60;1.00;;;;;;5095191;28;20915;-69
2022/09/21 04:18:19;;;;;;;4.93;4.47;;;6.60;1.00;;;;;;5110662;28;20173;-70
2022/09/21 04:20:44;;;;;;;4.67;4.13;;;6.60;1.00;;;;;;5114142;28;20168;-70
2022/09/21 04:23:10;;;;;;;5.47;4.97;;;6.60;1.00;;;;;;5110041;28;20419;-74
2022/09/21 04:25:36;;;;;;;5.10;4.40;;;6.60;1.00;;;;;;5095019;28;20215;-75
2022/09/21 04:28:01;;;;;;;5.80;4.70;;;6.50;1.00;;;;;;5095514;28;20170;-70
2022/09/21 04:30:27;;;;;;;5.03;4.60;;;6.50;1.00;;;;;;5095680;28;20174;-69
2022/09/21 04:32:53;;;;;;;5.03;4.57;;;6.50;1.00;;;;;;5095538;28;20695;-74
2022/09/21 04:35:19;;;;;;;5.20;4.70;;;6.50;1.00;;;;;;5096833;28;20432;-75
2022/09/21 04:37:45;;;;;;;5.07;3.93;;;6.50;1.00;;;;;;5095187;28;20165;-69
2022/09/21 04:40:10;;;;;;;5.97;5.00;;;6.50;1.00;;;;;;5094991;28;20907;-71
2022/09/21 04:42:36;;;;;;;8.03;4.90;;;6.50;1.00;;;;;;5095537;28;20162;-74
2022/09/21 04:45:03;;;;;;;9.43;5.53;;;6.40;1.00;;;;;;5107347;28;20196;-74
2022/09/21 04:47:29;;;;;;;4.63;4.23;;;6.40;1.00;;;;;;5115454;28;20165;-70
2022/09/21 04:49:55;;;;;;;5.43;4.83;;;6.40;1.00;;;;;;5103127;28;20922;-75
2022/09/21 04:52:21;;;;;;;5.83;5.10;;;6.40;1.00;;;;;;5077235;28;20400;-70
2022/09/21 04:54:46;;;;;;;7.60;6.83;;;6.40;1.00;;;;;;5084897;28;20712;-74
2022/09/21 04:57:13;;;;;;;12.17;7.00;;;6.40;1.00;;;;;;5115521;28;20183;-75
2022/09/21 04:59:39;;;;;;;9.30;6.97;;;6.40;1.00;;;;;;5106721;28;20419;-69
2022/09/21 05:02:05;;;;;;;7.67;6.70;;;6.30;1.00;;;;;;5094883;28;20407;-72
2022/09/21 05:04:30;;;;;;;6.20;5.70;;;6.30;1.00;;;;;;5107978;28;20571;-74
2022/09/21 05:06:58;;;;;;;8.50;6.80;;;6.30;1.00;;;;;;5113509;28;20180;-68
2022/09/21 05:12:08;;;;;;;9.03;5.60;;;6.30;1.00;;;;;;5101120;28;20484;-69
2022/09/21 05:14:35;;;;;;;7.13;6.43;;;6.30;1.00;;;;;;5093118;28;20446;-69
2022/09/21 05:17:00;;;;;;;6.63;5.80;;;6.30;1.00;;;;;;5106726;28;20420;-75
2022/09/21 05:19:26;;;;;;;7.73;6.00;;;6.40;1.00;;;;;;5110169;28;20684;-74
2022/09/21 05:21:52;;;;;;;5.23;4.77;;;6.30;1.00;;;;;;5102190;28;20168;-75
2022/09/21 05:24:17;;;;;;;5.73;5.23;;;6.30;1.00;;;;;;5095365;28;20181;-75
2022/09/21 05:26:43;;;;;;;5.00;4.60;;;6.30;1.00;;;;;;5114431;28;20196;-70
2022/09/21 05:29:09;;;;;;;6.50;5.40;;;6.30;1.00;;;;;;5114553;28;20165;-70
2022/09/21 05:31:47;;;;;;;6.60;5.90;;;6.30;1.00;;;;;;5114818;28;20176;-69
2022/09/21 05:34:50;;;;;;;9.30;6.17;;;6.40;1.00;;;;;;5092893;28;20197;-70
2022/09/21 05:37:28;;;;;;;6.30;5.57;;;6.40;1.00;;;;;;5079474;28;20445;-70
2022/09/21 05:39:54;;;;;;;5.00;4.57;;;6.40;1.00;;;;;;5114698;28;20411;-69
2022/09/21 05:42:20;;;;;;;6.50;5.47;;;6.40;1.00;;;;;;5112520;27;20449;-74
2022/09/21 05:44:48;;;;;;;5.60;5.10;;;6.40;1.00;;;;;;5097577;28;20447;-72
2022/09/21 05:47:28;;;;;;;5.30;4.77;;;6.40;1.00;;;;;;5080765;28;20543;-69
2022/09/21 05:50:13;;;;;;;6.97;5.87;;;6.40;1.00;;;;;;5076414;28;20422;-69
2022/09/21 05:52:56;;;;;;;6.63;5.50;;;6.50;1.00;;;;;;5077464;28;20422;-74
2022/09/21 05:55:29;;;;;;;7.30;5.80;;;6.50;1.00;;;;;;5103785;28;20529;-75
2022/09/21 05:58:18;;;;;;;6.40;5.80;;;6.60;1.00;;;;;;5075373;28;20447;-69
2022/09/21 06:01:15;;;;;;;12.50;7.60;;;6.60;1.00;;;;;;5093553;28;20376;-72
2022/09/21 06:03:42;;;;;;;6.47;5.87;;;6.60;1.00;;;;;;5054106;28;20416;-70
2022/09/21 06:06:08;;;;;;;7.93;5.77;;;6.70;1.00;;;;;;5093697;28;20541;-75
2022/09/21 06:08:36;;;;;;;6.90;6.20;;;6.70;1.00;;;;;;5105386;28;20435;-70
2022/09/21 06:11:01;;;;;;;6.97;6.30;;;6.80;1.00;;;;;;5095382;28;20516;-74
2022/09/21 06:13:27;;;;;;;8.53;6.60;;;6.80;1.00;;;;;;5113753;28;20450;-75
2022/09/21 06:15:53;;;;;;;9.30;6.33;;;6.80;1.00;;;;;;5113397;28;20188;-74
2022/09/21 06:18:19;;;;;;;7.13;6.37;;;6.90;1.00;;;;;;5113931;28;20240;-75
2022/09/21 06:20:45;;;;;;;9.73;5.87;;;6.90;1.00;;;;;;5113868;28;20184;-73
2022/09/21 06:23:12;;;;;;;7.60;6.80;;;6.90;1.00;;;;;;5102268;28;20184;-75
2022/09/21 06:25:38;;;;;;;9.07;6.87;;;7.00;1.00;;;;;;5107726;28;20490;-74
2022/09/21 06:28:09;;;;;;;8.63;6.10;;;7.10;1.00;;;;;;5113805;28;20394;-73
2022/09/21 06:30:36;;;;;;;8.70;6.70;;;7.10;1.00;;;;;;5113384;28;20755;-74
2022/09/21 06:33:03;;;;;;;8.07;6.70;;;7.20;21.00;;;;;;5095563;28;20503;-74
2022/09/21 06:35:30;;;;;;;10.87;6.63;;;7.30;29.30;;;;;;5094796;28;20494;-74
2022/09/21 06:38:00;;;;;;;10.77;6.30;;;7.40;1.00;;;;;;5094240;28;20942;-75
2022/09/21 06:40:32;;;;;;;9.87;7.53;;;7.50;1.00;;;;;;5113562;28;20881;-75
2022/09/21 06:42:59;;;;;;;10.10;6.53;;;7.50;1.00;;;;;;5113567;28;20516;-75
2022/09/21 06:45:29;;;;;;;6.23;5.60;;;7.60;5.40;;;;;;5112206;28;20578;-71
2022/09/21 06:47:55;;;;;;;5.77;5.27;;;7.70;14.50;;;;;;5113382;28;20608;-70
2022/09/21 06:50:20;;;;;;;7.20;6.47;;;7.80;18.90;;;;;;5095241;28;20378;-75
2022/09/21 06:52:46;;;;;;;6.47;5.83;;;7.90;12.10;;;;;;5110109;28;20495;-75
2022/09/21 06:55:12;;;;;;;8.93;6.87;;;8.00;24.20;;;;;;5092003;28;20192;-73
2022/09/21 06:57:38;;;;;;;9.10;6.97;;;8.10;29.90;;;;;;5093014;28;20181;-75
2022/09/21 07:00:07;;;;;;;21.60;13.90;;;8.20;37.40;;;;;;5093121;28;20909;-74
2022/09/21 07:02:32;;;;;;;30.20;17.83;;;8.30;49.50;;;;;;5093303;28;20455;-75
2022/09/21 07:04:58;;;;;;;36.27;21.23;;;8.40;91.40;;;;;;5091529;28;20541;-70
2022/09/21 07:07:24;;;;;;;19.20;15.30;;;8.50;91.20;;;;;;5109045;28;20189;-75
2022/09/21 07:09:51;;;;;;;14.23;10.37;;;8.60;91.90;;;;;;5095236;28;20275;-75
2022/09/21 07:12:19;;;;;;;10.40;9.30;;;8.70;63.40;;;;;;5113753;28;20797;-70
2022/09/21 07:14:45;;;;;;;9.20;8.27;;;8.80;90.60;;;;;;5115807;28;20458;-70
2022/09/21 07:17:13;;;;;;;6.73;6.23;;;8.90;91.90;;;;;;5117472;28;20379;-75
2022/09/21 07:19:39;;;;;;;7.40;6.03;;;9.00;93.30;;;;;;5096916;28;20180;-75
2022/09/21 07:22:04;;;;;;;6.70;6.00;;;9.20;82.60;;;;;;5079063;28;20382;-75
2022/09/21 07:24:30;;;;;;;10.03;7.20;;;9.30;96.00;;;;;;5113701;28;20191;-75
2022/09/21 07:26:56;;;;;;;7.40;6.70;;;9.40;98.60;;;;;;5117276;28;20205;-70
2022/09/21 07:29:22;;;;;;;5.80;5.20;;;9.60;99.90;;;;;;5100003;28;20181;-74
2022/09/21 07:31:48;;;;;;;7.83;5.17;;;9.70;99.90;;;;;;5078627;28;20391;-70
2022/09/21 07:34:14;;;;;;;5.47;5.07;;;9.90;99.90;;;;;;5109375;28;20254;-75
2022/09/21 07:36:39;;;;;;;6.13;5.00;;;10.10;99.90;;;;;;5117129;28;20719;-75
2022/09/21 07:39:08;;;;;;;4.80;4.40;;;10.30;99.90;;;;;;5102569;28;20490;-69
2022/09/21 07:41:33;;;;;;;5.90;3.93;;;10.40;99.90;;;;;;5096462;28;20197;-70
2022/09/21 07:43:59;;;;;;;3.70;3.40;;;10.60;99.90;;;;;;5107553;28;20939;-75
2022/09/21 07:46:25;;;;;;;7.63;3.23;;;10.70;99.90;;;;;;5116797;28;20253;-70
2022/09/21 07:48:53;;;;;;;4.00;2.93;;;10.90;99.90;;;;;;5112827;28;20176;-70
2022/09/21 07:51:19;;;;;;;3.20;3.00;;;11.00;99.90;;;;;;5098594;28;20180;-75
2022/09/21 07:53:45;;;;;;;3.73;3.53;;;11.20;99.90;;;;;;5111735;28;20532;-70
2022/09/21 07:56:16;;;;;;;3.90;3.50;;;11.40;99.90;;;;;;5116598;28;20656;-70
2022/09/21 08:01:28;;;;;;;4.43;3.00;;;11.60;99.90;;;;;;5113519;28;20412;-70
2022/09/21 08:03:56;;;;;;;2.90;2.57;;;11.80;99.90;;;;;;5115636;28;20406;-70
2022/09/21 08:06:23;;;;;;;3.50;2.63;;;11.90;99.90;;;;;;5116435;28;20810;-70
2022/09/21 08:08:50;;;;;;;3.13;2.43;;;12.00;99.90;;;;;;5116432;28;20403;-70
2022/09/21 08:11:18;;;;;;;4.97;2.50;;;12.20;99.90;;;;;;5116412;28;20475;-75
2022/09/21 08:13:44;;;;;;;4.03;2.53;;;12.30;99.90;;;;;;5113422;28;20455;-73
2022/09/21 08:16:10;;;;;;;2.10;1.90;;;12.40;99.90;;;;;;5095701;28;20462;-74
2022/09/21 08:18:38;;;;;;;2.50;2.30;;;12.50;99.90;;;;;;5116123;28;20452;-70
2022/09/21 08:21:04;;;;;;;2.47;2.27;;;12.70;99.90;;;;;;5116566;28;20895;-75
2022/09/21 08:23:31;;;;;;;1.90;1.80;;;12.80;99.90;;;;;;5116015;28;20400;-76
2022/09/21 08:26:02;;;;;;;1.47;1.37;;;12.90;99.90;;;;;;5115345;28;20401;-71
2022/09/21 08:28:32;;;;;;;2.57;1.73;;;13.10;99.90;;;;;;5112626;28;20554;-77
2022/09/21 08:31:04;;;;;;;2.57;2.00;;;13.30;99.90;;;;;;5095812;28;20415;-76
2022/09/21 08:33:30;;;;;;;1.60;1.40;;;13.40;99.90;;;;;;5095247;28;20943;-71
2022/09/21 08:35:57;;;;;;;1.50;1.40;;;13.50;99.90;;;;;;5094218;28;20436;-76
2022/09/21 08:38:24;;;;;;;3.53;1.70;;;13.70;98.60;;;;;;5095490;28;20966;-75
2022/09/21 08:41:01;;;;;;;2.37;1.13;;;13.80;88.80;;;;;;5095510;28;20457;-71
2022/09/21 08:43:38;;;;;;;1.30;1.20;;;14.00;59.70;;;;;;5107421;28;20520;-71
2022/09/21 08:46:13;;;;;;;1.70;1.43;;;14.30;61.50;;;;;;5097626;28;20520;-75
2022/09/21 08:48:45;;;;;;;3.67;1.47;;;14.40;40.80;;;;;;5115738;28;20493;-75
2022/09/21 08:51:47;;;;;;;1.70;1.30;;;14.50;25.30;;;;;;5115684;28;20411;-76
2022/09/21 08:54:27;;;;;;;1.53;1.20;;;14.70;17.50;;;;;;5073221;28;20565;-72
2022/09/21 08:56:53;;;;;;;1.80;1.30;;;15.00;9.80;;;;;;5113377;28;20400;-71
2022/09/21 08:59:19;;;;;;;1.30;1.13;;;15.10;1.00;;;;;;5115601;28;20479;-71
2022/09/21 09:01:58;;;;;;;1.40;1.20;;;15.20;1.00;;;;;;5115389;28;20168;-76
2022/09/21 09:08:31;;;;;;;2.37;1.87;;;15.60;1.00;;;;;;5115232;28;20398;-76
2022/09/21 09:11:42;;;;;;;1.30;1.20;;;15.80;1.00;;;;;;5032387;28;20911;-76
2022/09/21 09:17:56;;;;;;;;;;;;;;;;;;;;;
2022/09/21 09:20:52;;;;;;;1.30;0.90;;;16.60;1.00;;;;;;5030950;28;20434;-76
2022/09/21 09:23:48;;;;;;;1.20;1.00;;;16.70;1.00;;;;;;5094899;28;20443;-72
2022/09/21 09:26:28;;;;;;;1.70;1.33;;;16.30;1.00;;;;;;5103659;28;20442;-72
2022/09/21 09:29:02;;;;;;;1.60;0.80;;;16.40;1.00;;;;;;5110491;28;20437;-76
2022/09/21 09:31:32;;;;;;;1.43;1.33;;;16.70;1.00;;;;;;5099240;28;20442;-73
2022/09/21 09:34:19;;;;;;;1.40;1.30;;;17.30;1.00;;;;;;5106657;28;20470;-72
2022/09/21 09:36:49;;;;;;;1.47;1.37;;;17.60;1.00;;;;;;5111180;28;20445;-75
2022/09/21 09:39:16;;;;;;;2.07;1.17;;;18.10;1.00;;;;;;5096610;28;20418;-73
2022/09/21 09:42:06;;;;;;;2.90;0.93;;;18.30;1.00;;;;;;5096541;28;20415;-77
2022/09/21 09:44:40;;;;;;;1.17;0.90;;;18.20;1.00;;;;;;5092128;28;21544;-76
2022/09/21 09:47:50;;;;;;;1.23;1.13;;;18.00;1.00;;;;;;5094159;28;20800;-73
2022/09/21 09:50:30;;;;;;;1.10;1.00;;;18.20;1.00;;;;;;5093347;28;21006;-72
2022/09/21 09:53:03;;;;;;;1.80;1.13;;;18.60;1.00;;;;;;5098359;28;20890;-77
2022/09/21 09:55:39;;;;;;;2.90;0.87;;;19.10;1.00;;;;;;5108720;28;21555;-75
2022/09/21 09:58:18;;;;;;;0.90;0.80;;;19.40;1.00;;;;;;5114103;28;20422;-76
2022/09/21 10:00:46;;;;;;;1.10;1.00;;;19.70;1.00;;;;;;5114129;28;20779;-72
2022/09/21 10:03:21;;;;;;;1.10;1.00;;;20.00;1.00;;;;;;5114257;28;20399;-72
2022/09/21 10:05:47;;;;;;;1.60;0.97;;;20.30;1.00;;;;;;5112952;28;20422;-76
2022/09/21 10:08:33;;;;;;;2.20;0.80;;;20.60;1.00;;;;;;5114158;28;20403;-72
2022/09/21 10:10:59;;;;;;;1.47;0.80;;;20.90;1.00;;;;;;5095705;28;20529;-76
2022/09/21 10:13:33;;;;;;;0.80;0.53;;;20.70;1.00;;;;;;5094811;28;20883;-75
2022/09/21 10:16:21;;;;;;;0.90;0.70;;;20.90;1.00;;;;;;5093004;28;20427;-77
2022/09/21 10:18:50;;;;;;;1.10;0.90;;;21.20;1.00;;;;;;5075222;28;20415;-77
2022/09/21 10:21:32;;;;;;;1.10;0.90;;;21.40;1.00;;;;;;5075508;28;20788;-76
2022/09/21 10:24:45;;;;;;;;;;;;;;;;;;;;;
2022/09/21 10:27:46;;;;;;;1.33;0.90;;;21.30;1.00;;;;;;5112353;28;20428;-76
2022/09/21 10:30:34;;;;;;;1.87;1.13;;;21.80;1.00;;;;;;5086520;28;20418;-76
2022/09/21 10:33:03;;;;;;;1.30;0.80;;;22.20;1.00;;;;;;5092820;28;20845;-76
2022/09/21 10:35:49;;;;;;;1.00;0.67;;;22.60;1.00;;;;;;5092351;28;20422;-74
2022/09/21 10:38:18;;;;;;;1.60;0.97;;;22.70;1.00;;;;;;5093301;28;20396;-73
2022/09/21 10:40:45;;;;;;;0.97;0.80;;;23.00;1.00;;;;;;5094815;28;20422;-76
2022/09/21 10:43:33;;;;;;;1.30;0.90;;;22.80;1.00;;;;;;5113527;28;20492;-73
2022/09/21 10:46:09;;;;;;;1.90;0.90;;;22.70;1.00;;;;;;5111321;28;20419;-76
2022/09/21 10:48:56;;;;;;;1.20;0.87;;;22.60;1.00;;;;;;5095472;28;20402;-76
2022/09/21 10:51:29;;;;;;;1.97;1.20;;;22.40;1.00;;;;;;5113430;28;20501;-73
2022/09/21 10:53:56;;;;;;;1.20;1.10;;;21.40;1.00;;;;;;5111353;28;20469;-71
2022/09/21 10:56:25;;;;;;;1.03;0.70;;;20.30;1.00;;;;;;5113313;28;20426;-75
2022/09/21 10:59:24;;;;;;;1.80;1.40;;;19.10;1.00;;;;;;5113416;28;20447;-77
2022/09/21 11:01:52;;;;;;;1.70;0.90;;;18.30;1.00;;;;;;5095223;28;20433;-74
2022/09/21 11:04:46;;;;;;;3.00;0.90;;;18.00;1.00;;;;;;5112074;28;20426;-74
2022/09/21 11:07:31;;;;;;;1.97;1.00;;;17.80;1.00;;;;;;5093544;28;20513;-77
2022/09/21 11:10:18;;;;;;;1.80;1.30;;;17.50;1.00;;;;;;5113539;28;20437;-73
2022/09/21 11:13:08;;;;;;;1.70;1.20;;;17.10;1.00;;;;;;5113273;28;20402;-74
2022/09/21 11:15:54;;;;;;;3.93;1.07;;;16.90;1.00;;;;;;5094022;28;20442;-77
2022/09/21 11:21:54;;;;;;;1.40;1.30;;;16.40;1.00;;;;;;5048595;28;20433;-74
2022/09/21 11:24:59;;;;;;;1.20;1.10;;;16.00;1.00;;;;;;5091639;28;20958;-77
2022/09/21 11:27:45;;;;;;;1.30;1.20;;;15.90;1.00;;;;;;5092661;28;20452;-77
2022/09/21 11:30:17;;;;;;;2.00;1.90;;;16.10;1.00;;;;;;5092796;28;20414;-77
2022/09/21 11:33:01;;;;;;;2.03;0.90;;;16.10;1.00;;;;;;5092896;28;20399;-75
2022/09/21 11:35:42;;;;;;;1.33;1.23;;;16.00;1.00;;;;;;5091696;28;20447;-77
2022/09/21 11:38:11;;;;;;;1.53;1.43;;;16.00;1.00;;;;;;5092545;28;20545;-77
2022/09/21 11:40:59;;;;;;;1.60;1.10;;;16.10;1.00;;;;;;5092334;28;20404;-74
2022/09/21 11:43:55;;;;;;;4.00;1.40;;;16.20;1.00;;;;;;5092283;28;20839;-76
2022/09/21 11:46:48;;;;;;;1.30;1.20;;;16.00;1.00;;;;;;5074314;28;20534;-74
2022/09/21 11:49:31;;;;;;;1.30;0.93;;;16.10;1.00;;;;;;5087914;28;20515;-77
2022/09/21 11:52:50;;;;;;;1.37;1.27;;;16.30;1.00;;;;;;5113095;28;20468;-73
2022/09/21 11:55:43;;;;;;;1.07;0.97;;;16.50;1.00;;;;;;5112221;28;20584;-77
2022/09/21 11:58:29;;;;;;;1.10;0.80;;;16.70;1.00;;;;;;5111566;28;20513;-74
2022/09/21 12:01:20;;;;;;;1.40;1.00;;;17.00;1.00;;;;;;5098416;28;20414;-77
2022/09/21 12:04:02;;;;;;;1.10;1.00;;;17.20;1.00;;;;;;5115535;28;20417;-73
2022/09/21 12:06:44;;;;;;;1.10;0.90;;;17.50;1.00;;;;;;5116462;28;20892;-76
2022/09/21 12:09:16;;;;;;;1.00;0.90;;;17.90;1.00;;;;;;5116371;28;20399;-74
2022/09/21 12:11:50;;;;;;;1.47;1.13;;;18.00;1.00;;;;;;5112274;28;20760;-74
2022/09/21 12:14:21;;;;;;;1.07;0.93;;;18.00;1.00;;;;;;5115340;28;20531;-73
2022/09/21 12:16:59;;;;;;;1.40;0.97;;;17.90;1.00;;;;;;5115517;28;20505;-73
2022/09/21 12:19:45;;;;;;;1.00;0.70;;;18.20;1.00;;;;;;5095132;28;20426;-76
2022/09/21 12:22:39;;;;;;;0.90;0.70;;;18.40;1.00;;;;;;5115901;28;20399;-74
2022/09/21 12:25:32;;;;;;;;;;;;;;;;;;;;;
2022/09/21 12:28:10;;;;;;;1.10;0.70;;;18.80;1.00;;;;;;5113568;28;20405;-73
2022/09/21 12:30:40;;;;;;;1.03;0.70;;;18.90;1.00;;;;;;5113438;28;20832;-72
2022/09/21 12:33:24;;;;;;;1.20;0.60;;;19.20;1.00;;;;;;5115565;28;20406;-73
2022/09/21 12:35:57;;;;;;;1.00;0.70;;;19.70;1.00;;;;;;5094300;28;20975;-73
2022/09/21 12:38:43;;;;;;;1.77;0.83;;;20.20;1.00;;;;;;5095440;28;20402;-76
2022/09/21 12:41:14;;;;;;;1.00;0.90;;;20.40;1.00;;;;;;5095419;28;20398;-73
2022/09/21 12:44:02;;;;;;;0.90;0.60;;;20.60;1.00;;;;;;5094436;28;20499;-74
2022/09/21 12:47:07;;;;;;;1.43;0.70;;;20.90;1.00;;;;;;5095198;28;20427;-74
2022/09/21 12:50:03;;;;;;;0.90;0.70;;;20.80;1.00;;;;;;5095270;28;20431;-75
2022/09/21 12:52:31;;;;;;;18.37;16.13;;;20.20;1.00;;;;;;5094992;28;20408;-74
2022/09/21 12:55:20;;;;;;;1.10;1.00;;;20.20;1.00;;;;;;5093074;28;20450;-76
2022/09/21 12:58:10;;;;;;;1.23;0.80;;;20.80;1.00;;;;;;5094947;28;20472;-75
2022/09/21 13:01:10;;;;;;;1.37;0.80;;;21.70;1.00;;;;;;5095048;28;20915;-73
2022/09/21 13:03:55;;;;;;;0.90;0.50;;;22.70;1.00;;;;;;5094807;28;20415;-77
2022/09/21 13:06:33;;;;;;;4.30;0.60;;;23.20;1.00;;;;;;5094935;28;20458;-76
2022/09/21 13:09:00;;;;;;;1.67;0.70;;;23.70;1.00;;;;;;5094120;28;20438;-76
2022/09/21 13:11:26;;;;;;;0.80;0.50;;;23.20;1.00;;;;;;5094831;28;20407;-73
2022/09/21 13:13:59;;;;;;;0.97;0.70;;;22.70;1.00;;;;;;5112158;28;20499;-76
2022/09/21 13:16:30;;;;;;;1.10;0.60;;;23.10;1.00;;;;;;5096220;28;20786;-76
2022/09/21 13:19:20;;;;;;;1.73;0.70;;;23.50;1.00;;;;;;5115214;28;20453;-76
2022/09/21 13:22:12;;;;;;;1.83;0.57;;;24.00;1.00;;;;;;5114946;28;20399;-75
2022/09/21 13:24:38;;;;;;;2.07;0.60;;;24.30;1.00;;;;;;5113895;28;20425;-77
2022/09/21 13:27:06;;;;;;;1.00;0.60;;;24.50;1.00;;;;;;5114883;28;20906;-74
2022/09/21 13:29:37;;;;;;;1.93;0.60;;;24.20;1.00;;;;;;5114955;28;20539;-76
2022/09/21 13:32:21;;;;;;;1.17;0.60;;;23.60;1.00;;;;;;5114710;28;20399;-77
2022/09/21 13:34:49;;;;;;;0.80;0.53;;;23.20;1.00;;;;;;5113034;28;20455;-74
2022/09/21 13:37:18;;;;;;;1.87;0.60;;;23.20;1.00;;;;;;5114729;28;20426;-77
2022/09/21 13:39:50;;;;;;;0.80;0.60;;;23.30;1.00;;;;;;5096524;28;20510;-76
2022/09/21 13:42:31;;;;;;;1.00;0.50;;;23.20;1.00;;;;;;5096657;28;20395;-76
2022/09/21 13:45:12;;;;;;;1.37;0.70;;;23.00;1.00;;;;;;5113692;28;20426;-73
2022/09/21 13:47:40;;;;;;;1.10;0.60;;;23.00;1.00;;;;;;5114550;28;20398;-76
2022/09/21 13:51:27;;;;;;;1.37;0.50;;;22.90;1.00;;;;;;5114460;28;20407;-73
2022/09/21 13:53:37;;;;;;;1.10;0.70;;;22.70;1.00;;;;;;5102187;28;20512;-76
2022/09/21 13:56:19;;;;;;;1.20;0.60;;;22.50;1.00;;;;;;5114062;28;20500;-76